Time;durP1;ratioP1;P1;durP2;ratioP2;P2;SDS_P1;SDS_P2;PMS_P1;PMS_P2;Temp;Humidity;BMP_temperature;BMP_pressure;BME280_temperature;BME280_humidity;BME280_pressure;Samples;Min_cycle;Max_cycle;Signal;HPM_P1;HPM_P2
2022/01/07 00:00:57;;;;;;;2.67;1.75;;;;;;;;;;5046890;28;20035;-59
2022/01/07 00:03:23;;;;;;;2.40;1.70;;;;;;;;;;5046844;28;20036;-55
2022/01/07 00:05:48;;;;;;;2.30;1.83;;;;;;;;;;5047259;28;20025;-56
2022/01/07 00:08:13;;;;;;;2.35;1.80;;;;;;;;;;5046879;28;20799;-53
2022/01/07 00:10:39;;;;;;;2.30;1.60;;;;;;;;;;5047217;28;20941;-52
2022/01/07 00:13:04;;;;;;;2.20;1.55;;;;;;;;;;5046966;28;20013;-55
2022/01/07 00:15:29;;;;;;;2.63;1.80;;;;;;;;;;5029102;28;20034;-55
2022/01/07 00:17:54;;;;;;;2.57;1.70;;;;;;;;;;5046474;28;20051;-56
2022/01/07 00:20:20;;;;;;;2.53;1.83;;;;;;;;;;5046566;28;20120;-55
2022/01/07 00:22:45;;;;;;;2.60;1.83;;;;;;;;;;5046601;28;20056;-52
2022/01/07 00:25:11;;;;;;;3.22;1.65;;;;;;;;;;5047110;28;20322;-56
2022/01/07 00:27:36;;;;;;;2.30;1.50;;;;;;;;;;5046941;28;20029;-53
2022/01/07 00:30:03;;;;;;;2.35;1.70;;;;;;;;;;5046501;28;20061;-51
2022/01/07 00:32:28;;;;;;;2.13;1.52;;;;;;;;;;5046472;28;20017;-52
2022/01/07 00:34:53;;;;;;;2.03;1.37;;;;;;;;;;5046367;28;20023;-52
2022/01/07 00:37:18;;;;;;;2.05;1.70;;;;;;;;;;5046494;28;20017;-52
2022/01/07 00:39:45;;;;;;;2.40;1.80;;;;;;;;;;5046590;28;20042;-54
2022/01/07 00:42:10;;;;;;;2.00;1.67;;;;;;;;;;5046179;28;20299;-54
2022/01/07 00:44:36;;;;;;;2.23;1.47;;;;;;;;;;5046372;28;20087;-56
2022/01/07 00:47:01;;;;;;;2.17;1.70;;;;;;;;;;5046437;28;20559;-58
2022/01/07 00:49:26;;;;;;;2.15;1.55;;;;;;;;;;5046470;28;20474;-54
2022/01/07 00:51:51;;;;;;;2.65;1.80;;;;;;;;;;5046050;28;20033;-53
2022/01/07 00:54:17;;;;;;;2.50;2.00;;;;;;;;;;5045740;28;20063;-53
2022/01/07 00:56:42;;;;;;;2.00;1.42;;;;;;;;;;5046305;28;20120;-56
2022/01/07 00:59:08;;;;;;;2.17;1.70;;;;;;;;;;5046150;28;20028;-51
2022/01/07 01:01:33;;;;;;;2.00;1.63;;;;;;;;;;5046183;28;20116;-53
2022/01/07 01:03:58;;;;;;;1.90;1.53;;;;;;;;;;5027973;28;20503;-52
2022/01/07 01:06:23;;;;;;;2.23;1.70;;;;;;;;;;5045709;28;20495;-57
2022/01/07 01:08:48;;;;;;;2.60;1.80;;;;;;;;;;5045298;28;20506;-52
2022/01/07 01:11:14;;;;;;;2.73;1.67;;;;;;;;;;5045934;28;20346;-53
2022/01/07 01:13:39;;;;;;;2.07;1.30;;;;;;;;;;5045739;28;20108;-54
2022/01/07 01:16:04;;;;;;;2.77;1.57;;;;;;;;;;5045801;28;20101;-53
2022/01/07 01:18:29;;;;;;;2.17;1.40;;;;;;;;;;5045267;28;20104;-52
2022/01/07 01:20:54;;;;;;;2.63;1.80;;;;;;;;;;5045629;28;20096;-58
2022/01/07 01:23:20;;;;;;;2.10;1.60;;;;;;;;;;5045309;28;20326;-53
2022/01/07 01:25:45;;;;;;;2.23;1.43;;;;;;;;;;5045658;28;20075;-54
2022/01/07 01:28:10;;;;;;;1.87;1.47;;;;;;;;;;5045190;28;20271;-53
2022/01/07 01:30:36;;;;;;;2.13;1.70;;;;;;;;;;5045602;28;20270;-52
2022/01/07 01:33:01;;;;;;;2.67;1.48;;;;;;;;;;5045024;28;20033;-53
2022/01/07 01:35:26;;;;;;;2.47;1.58;;;;;;;;;;5045196;28;20522;-51
2022/01/07 01:37:52;;;;;;;1.90;1.50;;;;;;;;;;5045306;28;20036;-52
2022/01/07 01:40:17;;;;;;;1.97;1.57;;;;;;;;;;5044941;28;20415;-51
2022/01/07 01:42:42;;;;;;;2.70;1.52;;;;;;;;;;5044844;28;20259;-51
2022/01/07 01:45:08;;;;;;;2.17;1.30;;;;;;;;;;5044951;28;20086;-52
2022/01/07 01:47:34;;;;;;;2.35;1.55;;;;;;;;;;5045013;28;20560;-55
2022/01/07 01:49:59;;;;;;;2.30;1.77;;;;;;;;;;5027132;28;20548;-54
2022/01/07 01:52:24;;;;;;;2.57;1.50;;;;;;;;;;5044794;28;20692;-52
2022/01/07 01:54:49;;;;;;;2.33;1.67;;;;;;;;;;5045055;28;20457;-55
2022/01/07 01:57:14;;;;;;;2.53;1.50;;;;;;;;;;5044945;28;20397;-53
2022/01/07 01:59:40;;;;;;;1.88;1.25;;;;;;;;;;5045350;28;20557;-53
2022/01/07 02:02:05;;;;;;;1.60;1.30;;;;;;;;;;5044958;28;20115;-53
2022/01/07 02:04:30;;;;;;;2.53;1.60;;;;;;;;;;5044300;28;20396;-57
2022/01/07 02:06:56;;;;;;;2.72;1.50;;;;;;;;;;5044842;28;20227;-55
2022/01/07 02:09:27;;;;;;;1.40;1.10;;;;;;;;;;5026810;28;20021;-53
2022/01/07 02:11:52;;;;;;;2.25;1.67;;;;;;;;;;5027478;28;20352;-53
2022/01/07 02:14:17;;;;;;;2.13;1.33;;;;;;;;;;5044115;28;20034;-58
2022/01/07 02:16:42;;;;;;;2.33;1.47;;;;;;;;;;5044576;28;20263;-54
2022/01/07 02:19:08;;;;;;;1.97;1.50;;;;;;;;;;5044855;28;20279;-55
2022/01/07 02:21:37;;;;;;;2.10;1.60;;;;;;;;;;5044511;28;20027;-55
2022/01/07 02:24:02;;;;;;;2.10;1.33;;;;;;;;;;5044497;28;20049;-57
2022/01/07 02:26:28;;;;;;;2.22;1.35;;;;;;;;;;5045123;28;20856;-56
2022/01/07 02:28:53;;;;;;;1.95;1.35;;;;;;;;;;5044746;28;20474;-58
2022/01/07 02:31:18;;;;;;;1.73;1.20;;;;;;;;;;5044702;28;20492;-57
2022/01/07 02:33:44;;;;;;;1.80;1.50;;;;;;;;;;5044360;28;20271;-58
2022/01/07 02:36:09;;;;;;;1.60;1.20;;;;;;;;;;5044261;28;20029;-56
2022/01/07 02:38:34;;;;;;;1.60;1.30;;;;;;;;;;5026766;28;20263;-54
2022/01/07 02:41:00;;;;;;;1.90;1.40;;;;;;;;;;5044467;28;20531;-56
2022/01/07 02:43:25;;;;;;;2.33;1.30;;;;;;;;;;5044283;28;20025;-56
2022/01/07 02:45:50;;;;;;;1.57;1.20;;;;;;;;;;5044226;28;20102;-55
2022/01/07 02:48:15;;;;;;;1.83;1.20;;;;;;;;;;5044106;28;20082;-57
2022/01/07 02:50:40;;;;;;;1.90;1.37;;;;;;;;;;5044227;28;20267;-56
2022/01/07 02:53:07;;;;;;;3.17;1.80;;;;;;;;;;5044199;28;20267;-54
2022/01/07 02:55:32;;;;;;;2.03;1.38;;;;;;;;;;5044399;28;20822;-54
2022/01/07 02:57:58;;;;;;;1.90;1.40;;;;;;;;;;5044291;28;20139;-56
2022/01/07 03:00:23;;;;;;;1.43;0.97;;;;;;;;;;5044030;28;20067;-57
2022/01/07 03:02:49;;;;;;;2.08;1.60;;;;;;;;;;5043935;28;20040;-55
2022/01/07 03:05:14;;;;;;;1.73;1.35;;;;;;;;;;5044686;28;20410;-57
2022/01/07 03:07:39;;;;;;;1.58;1.08;;;;;;;;;;5044328;28;20021;-57
2022/01/07 03:10:05;;;;;;;1.63;1.23;;;;;;;;;;5044471;28;20082;-58
2022/01/07 03:12:30;;;;;;;1.77;1.27;;;;;;;;;;5043964;28;20502;-55
2022/01/07 03:14:56;;;;;;;2.33;1.30;;;;;;;;;;5044016;28;20048;-58
2022/01/07 03:17:21;;;;;;;2.13;1.60;;;;;;;;;;5044197;28;20272;-55
2022/01/07 03:19:46;;;;;;;1.48;1.10;;;;;;;;;;5044083;28;20472;-58
2022/01/07 03:22:11;;;;;;;2.00;1.33;;;;;;;;;;5043708;28;20029;-56
2022/01/07 03:24:38;;;;;;;1.60;1.10;;;;;;;;;;5044258;28;20040;-56
2022/01/07 03:27:03;;;;;;;1.98;1.30;;;;;;;;;;5043875;28;20021;-57
2022/01/07 03:29:28;;;;;;;2.20;1.50;;;;;;;;;;5044123;28;20086;-57
2022/01/07 03:31:55;;;;;;;1.70;1.23;;;;;;;;;;5046885;28;20127;-58
2022/01/07 03:34:20;;;;;;;1.60;1.20;;;;;;;;;;5047078;28;20239;-56
2022/01/07 03:36:45;;;;;;;1.43;1.10;;;;;;;;;;5047663;28;20169;-53
2022/01/07 03:39:11;;;;;;;2.33;1.30;;;;;;;;;;5047539;28;20268;-58
2022/01/07 03:41:36;;;;;;;1.60;1.30;;;;;;;;;;5047732;28;20263;-58
2022/01/07 03:44:01;;;;;;;2.00;1.40;;;;;;;;;;5046987;28;20302;-58
2022/01/07 03:46:26;;;;;;;1.80;1.40;;;;;;;;;;5047104;28;20043;-53
2022/01/07 03:48:52;;;;;;;1.70;1.30;;;;;;;;;;5047484;28;20290;-58
2022/01/07 03:51:17;;;;;;;1.50;1.17;;;;;;;;;;5047342;28;20306;-55
2022/01/07 03:53:42;;;;;;;1.65;1.27;;;;;;;;;;5047413;28;20677;-57
2022/01/07 03:56:10;;;;;;;2.00;1.40;;;;;;;;;;5047296;28;20083;-58
2022/01/07 03:58:35;;;;;;;2.00;1.30;;;;;;;;;;5047119;28;20094;-52
2022/01/07 04:01:00;;;;;;;1.52;1.20;;;;;;;;;;5047283;28;20803;-56
2022/01/07 04:03:25;;;;;;;2.33;1.40;;;;;;;;;;5047634;28;20048;-56
2022/01/07 04:05:51;;;;;;;2.00;1.40;;;;;;;;;;5047869;28;20770;-57
2022/01/07 04:08:16;;;;;;;1.40;1.20;;;;;;;;;;5048301;28;20095;-58
2022/01/07 04:10:41;;;;;;;2.33;1.40;;;;;;;;;;5048596;28;20036;-57
2022/01/07 04:13:06;;;;;;;1.90;1.42;;;;;;;;;;5048148;28;20275;-57
2022/01/07 04:15:32;;;;;;;2.27;1.50;;;;;;;;;;5047363;28;20037;-56
2022/01/07 04:17:57;;;;;;;1.83;1.20;;;;;;;;;;5047365;28;20272;-52
2022/01/07 04:20:24;;;;;;;1.80;1.30;;;;;;;;;;5046991;28;20104;-56
2022/01/07 04:22:49;;;;;;;1.98;1.20;;;;;;;;;;5028954;28;20366;-55
2022/01/07 04:25:17;;;;;;;1.50;1.17;;;;;;;;;;5047437;28;20111;-54
2022/01/07 04:27:44;;;;;;;1.52;1.23;;;;;;;;;;5047749;28;20032;-52
2022/01/07 04:30:09;;;;;;;1.77;1.40;;;;;;;;;;5047371;28;20060;-54
2022/01/07 04:32:34;;;;;;;1.40;1.13;;;;;;;;;;5047577;28;20056;-57
2022/01/07 04:35:01;;;;;;;1.80;1.48;;;;;;;;;;5048709;28;20025;-59
2022/01/07 04:37:26;;;;;;;1.67;1.17;;;;;;;;;;5048792;28;20548;-54
2022/01/07 04:39:51;;;;;;;1.90;1.40;;;;;;;;;;5048013;28;20024;-56
2022/01/07 04:42:16;;;;;;;1.90;1.40;;;;;;;;;;5046442;28;20131;-55
2022/01/07 04:44:42;;;;;;;2.97;1.50;;;;;;;;;;5046194;28;20100;-58
2022/01/07 04:47:07;;;;;;;1.63;1.40;;;;;;;;;;5046616;28;20117;-57
2022/01/07 04:49:33;;;;;;;2.00;1.20;;;;;;;;;;5047090;28;20024;-53
2022/01/07 04:51:58;;;;;;;1.83;1.38;;;;;;;;;;5046573;28;20363;-53
2022/01/07 04:54:23;;;;;;;1.73;1.20;;;;;;;;;;5046911;28;20032;-56
2022/01/07 04:56:48;;;;;;;1.67;1.10;;;;;;;;;;5046664;28;20259;-53
2022/01/07 04:59:14;;;;;;;2.10;1.50;;;;;;;;;;5046617;28;20263;-53
2022/01/07 05:01:39;;;;;;;1.53;1.17;;;;;;;;;;5046010;28;20017;-54
2022/01/07 05:04:04;;;;;;;2.17;1.13;;;;;;;;;;5045261;28;20295;-52
2022/01/07 05:06:45;;;;;;;2.00;1.37;;;;;;;;;;5046178;28;20028;-52
2022/01/07 05:09:16;;;;;;;2.08;1.50;;;;;;;;;;5045808;28;20268;-53
2022/01/07 05:11:48;;;;;;;1.80;1.30;;;;;;;;;;5045621;28;20025;-55
2022/01/07 05:14:13;;;;;;;2.67;1.40;;;;;;;;;;5045650;28;20040;-53
2022/01/07 05:16:40;;;;;;;1.70;1.20;;;;;;;;;;5045599;28;20021;-55
2022/01/07 05:19:05;;;;;;;1.92;1.40;;;;;;;;;;5043516;28;20029;-53
2022/01/07 05:21:30;;;;;;;1.77;1.23;;;;;;;;;;5026098;28;20025;-55
2022/01/07 05:23:55;;;;;;;1.53;1.10;;;;;;;;;;5035143;28;20303;-55
2022/01/07 05:26:21;;;;;;;2.33;1.33;;;;;;;;;;5045306;28;20273;-56
2022/01/07 05:28:46;;;;;;;1.80;1.30;;;;;;;;;;5045100;28;20318;-55
2022/01/07 05:31:11;;;;;;;1.50;1.00;;;;;;;;;;5043612;28;20021;-55
2022/01/07 05:33:37;;;;;;;1.53;1.20;;;;;;;;;;5038570;28;20033;-54
2022/01/07 05:36:02;;;;;;;2.80;1.40;;;;;;;;;;5026838;28;20272;-57
2022/01/07 05:38:27;;;;;;;1.90;1.20;;;;;;;;;;5015501;28;20106;-56
2022/01/07 05:40:52;;;;;;;1.47;1.17;;;;;;;;;;5029960;28;20802;-54
2022/01/07 05:43:18;;;;;;;1.40;1.13;;;;;;;;;;5028163;28;20718;-55
2022/01/07 05:45:45;;;;;;;1.47;0.97;;;;;;;;;;5026760;28;20333;-58
2022/01/07 05:48:11;;;;;;;1.45;0.90;;;;;;;;;;5030252;28;20028;-58
2022/01/07 05:50:36;;;;;;;1.92;1.10;;;;;;;;;;5032445;28;20029;-53
2022/01/07 05:53:01;;;;;;;1.70;1.30;;;;;;;;;;5028605;28;20091;-58
2022/01/07 05:55:26;;;;;;;2.13;1.33;;;;;;;;;;5027610;28;20770;-55
2022/01/07 05:57:52;;;;;;;2.00;1.30;;;;;;;;;;5037434;28;20596;-53
2022/01/07 06:00:18;;;;;;;2.13;1.13;;;;;;;;;;5028574;28;20029;-57
2022/01/07 06:02:43;;;;;;;4.95;1.33;;;;;;;;;;5031087;28;20035;-56
2022/01/07 06:05:08;;;;;;;1.80;1.27;;;;;;;;;;5044311;28;20108;-54
2022/01/07 06:07:34;;;;;;;2.00;1.30;;;;;;;;;;5040448;28;21056;-57
2022/01/07 06:09:59;;;;;;;1.87;0.93;;;;;;;;;;5026971;28;20032;-55
2022/01/07 06:12:25;;;;;;;2.05;1.30;;;;;;;;;;5027037;28;20785;-53
2022/01/07 06:14:50;;;;;;;1.50;1.13;;;;;;;;;;5025217;28;20025;-54
2022/01/07 06:17:15;;;;;;;1.80;1.30;;;;;;;;;;5032275;28;20426;-55
2022/01/07 06:19:40;;;;;;;2.08;1.42;;;;;;;;;;5044642;28;20287;-55
2022/01/07 06:22:06;;;;;;;1.70;1.17;;;;;;;;;;5044326;28;20601;-53
2022/01/07 06:24:31;;;;;;;1.87;1.20;;;;;;;;;;5044326;28;20287;-58
2022/01/07 06:26:56;;;;;;;2.03;1.57;;;;;;;;;;5044070;28;20355;-53
2022/01/07 06:29:22;;;;;;;1.70;1.20;;;;;;;;;;5044674;28;20652;-55
2022/01/07 06:31:47;;;;;;;1.70;1.30;;;;;;;;;;5044730;28;20489;-54
2022/01/07 06:34:12;;;;;;;2.03;1.33;;;;;;;;;;5044551;28;20587;-56
2022/01/07 06:36:37;;;;;;;2.23;1.50;;;;;;;;;;5043880;28;20316;-55
2022/01/07 06:39:02;;;;;;;1.70;1.30;;;;;;;;;;5026744;28;20175;-56
2022/01/07 06:41:28;;;;;;;1.95;1.40;;;;;;;;;;5024871;28;20108;-57
2022/01/07 06:43:53;;;;;;;1.53;1.43;;;;;;;;;;5024429;28;20496;-55
2022/01/07 06:46:18;;;;;;;2.43;1.33;;;;;;;;;;5024476;28;20025;-54
2022/01/07 06:48:44;;;;;;;1.57;1.17;;;;;;;;;;5025033;28;20020;-53
2022/01/07 06:51:10;;;;;;;1.75;1.40;;;;;;;;;;5025315;28;20021;-56
2022/01/07 06:53:35;;;;;;;1.87;1.50;;;;;;;;;;5025157;28;20024;-57
2022/01/07 06:56:00;;;;;;;1.50;1.20;;;;;;;;;;5034293;28;20279;-54
2022/01/07 06:58:25;;;;;;;1.80;1.30;;;;;;;;;;5025648;28;20063;-52
2022/01/07 07:00:51;;;;;;;1.70;1.20;;;;;;;;;;5025402;28;20035;-54
2022/01/07 07:03:16;;;;;;;1.70;1.27;;;;;;;;;;5025474;28;20086;-53
2022/01/07 07:05:41;;;;;;;1.73;1.33;;;;;;;;;;5033040;28;20268;-54
2022/01/07 07:08:06;;;;;;;2.07;1.80;;;;;;;;;;5032390;28;20051;-57
2022/01/07 07:10:31;;;;;;;1.67;1.37;;;;;;;;;;5034666;28;20040;-54
2022/01/07 07:12:57;;;;;;;1.30;1.03;;;;;;;;;;5029341;28;20032;-53
2022/01/07 07:15:22;;;;;;;1.90;1.40;;;;;;;;;;5028890;28;20037;-56
2022/01/07 07:17:48;;;;;;;1.43;1.20;;;;;;;;;;5022645;28;20276;-56
2022/01/07 07:20:13;;;;;;;1.67;1.30;;;;;;;;;;5037248;28;20268;-57
2022/01/07 07:22:39;;;;;;;1.70;1.27;;;;;;;;;;5042255;28;20125;-54
2022/01/07 07:25:04;;;;;;;1.70;1.30;;;;;;;;;;5038713;28;20306;-55
2022/01/07 07:27:29;;;;;;;2.00;1.20;;;;;;;;;;5041518;28;21147;-57
2022/01/07 07:29:55;;;;;;;1.80;1.30;;;;;;;;;;5028376;28;20596;-57
2022/01/07 07:32:25;;;;;;;1.55;1.20;;;;;;;;;;5029355;28;20496;-56
2022/01/07 07:35:03;;;;;;;1.65;1.30;;;;;;;;;;5031921;28;20028;-54
2022/01/07 07:37:28;;;;;;;1.90;1.20;;;;;;;;;;5027446;28;20222;-58
2022/01/07 07:39:53;;;;;;;1.70;1.37;;;;;;;;;;5028254;28;20496;-58
2022/01/07 07:42:19;;;;;;;2.05;1.60;;;;;;;;;;5027555;28;21884;-55
2022/01/07 07:44:45;;;;;;;1.88;1.33;;;;;;;;;;5027677;28;20099;-57
2022/01/07 07:47:10;;;;;;;2.30;1.52;;;;;;;;;;5040971;28;20530;-56
2022/01/07 07:49:36;;;;;;;1.63;1.20;;;;;;;;;;5034772;28;20132;-54
2022/01/07 07:52:01;;;;;;;3.20;1.50;;;;;;;;;;5025618;28;20768;-56
2022/01/07 07:54:26;;;;;;;2.03;1.40;;;;;;;;;;5025587;28;20090;-57
2022/01/07 07:56:51;;;;;;;1.93;1.30;;;;;;;;;;5030515;28;20100;-59
2022/01/07 07:59:16;;;;;;;3.22;1.35;;;;;;;;;;5029477;28;20492;-53
2022/01/07 08:01:42;;;;;;;1.63;1.30;;;;;;;;;;5034489;28;20025;-57
2022/01/07 08:04:07;;;;;;;2.10;1.30;;;;;;;;;;5027562;28;20041;-57
2022/01/07 08:06:32;;;;;;;1.90;1.40;;;;;;;;;;5022137;28;20170;-54
2022/01/07 08:08:58;;;;;;;2.70;1.60;;;;;;;;;;5030141;28;20147;-57
2022/01/07 08:11:27;;;;;;;2.10;1.23;;;;;;;;;;5028314;28;20268;-58
2022/01/07 08:16:19;;;;;;;1.60;1.30;;;;;;;;;;4999393;28;20045;-56
2022/01/07 08:18:44;;;;;;;2.30;1.45;;;;;;;;;;5024868;28;20028;-56
2022/01/07 08:21:10;;;;;;;2.10;1.30;;;;;;;;;;5034968;28;20013;-58
2022/01/07 08:23:36;;;;;;;2.00;1.48;;;;;;;;;;5034041;28;20571;-57
2022/01/07 08:26:07;;;;;;;2.22;1.40;;;;;;;;;;5035505;28;20037;-56
2022/01/07 08:28:38;;;;;;;2.38;1.85;;;;;;;;;;5033980;28;20160;-57
2022/01/07 08:31:25;;;;;;;1.73;1.23;;;;;;;;;;5027086;28;20129;-56
2022/01/07 08:36:32;;;;;;;2.40;1.58;;;;;;;;;;5034197;28;20175;-56
2022/01/07 08:38:57;;;;;;;2.13;1.60;;;;;;;;;;5026972;28;20654;-56
2022/01/07 08:41:23;;;;;;;2.65;1.90;;;;;;;;;;5027199;28;20491;-55
2022/01/07 08:43:49;;;;;;;3.53;1.60;;;;;;;;;;5041598;28;20040;-56
2022/01/07 08:46:14;;;;;;;3.25;1.50;;;;;;;;;;5026859;28;20480;-56
2022/01/07 08:48:39;;;;;;;3.70;1.70;;;;;;;;;;5027031;28;20033;-54
2022/01/07 08:51:05;;;;;;;1.95;1.45;;;;;;;;;;5030792;28;20354;-57
2022/01/07 08:53:30;;;;;;;2.40;1.65;;;;;;;;;;5025085;28;20535;-55
2022/01/07 08:55:55;;;;;;;2.78;1.73;;;;;;;;;;5025567;28;20032;-56
2022/01/07 08:58:21;;;;;;;2.63;1.50;;;;;;;;;;5027909;28;20473;-55
2022/01/07 09:00:46;;;;;;;1.83;1.60;;;;;;;;;;5025216;28;20029;-56
2022/01/07 09:03:12;;;;;;;2.53;1.70;;;;;;;;;;5038184;28;20511;-59
2022/01/07 09:05:38;;;;;;;2.35;1.77;;;;;;;;;;5038757;28;20370;-56
2022/01/07 09:08:06;;;;;;;2.65;2.00;;;;;;;;;;5024931;28;20108;-57
2022/01/07 09:10:32;;;;;;;2.70;1.70;;;;;;;;;;5025240;28;20044;-57
2022/01/07 09:12:57;;;;;;;2.33;1.60;;;;;;;;;;5034300;28;20025;-54
2022/01/07 09:15:22;;;;;;;2.80;1.73;;;;;;;;;;5029740;28;20332;-56
2022/01/07 09:17:49;;;;;;;2.23;1.60;;;;;;;;;;5026031;28;20264;-58
2022/01/07 09:20:14;;;;;;;2.65;1.70;;;;;;;;;;5027388;28;20268;-52
2022/01/07 09:22:39;;;;;;;2.30;1.70;;;;;;;;;;5027620;28;20038;-58
2022/01/07 09:25:05;;;;;;;2.43;1.90;;;;;;;;;;5025114;28;20029;-54
2022/01/07 09:27:31;;;;;;;2.45;1.73;;;;;;;;;;5025606;28;20021;-55
2022/01/07 09:29:56;;;;;;;2.35;1.73;;;;;;;;;;5030537;28;20085;-57
2022/01/07 09:32:21;;;;;;;2.50;1.60;;;;;;;;;;5037986;28;20021;-56
2022/01/07 09:34:46;;;;;;;2.93;1.73;;;;;;;;;;5048367;28;20275;-56
2022/01/07 09:37:11;;;;;;;2.43;1.73;;;;;;;;;;5047357;28;20279;-54
2022/01/07 09:39:37;;;;;;;2.80;1.80;;;;;;;;;;5045219;28;21085;-55
2022/01/07 09:42:03;;;;;;;3.63;1.92;;;;;;;;;;5037763;28;20264;-55
2022/01/07 09:44:28;;;;;;;2.67;2.10;;;;;;;;;;5027661;28;20036;-56
2022/01/07 09:46:54;;;;;;;2.47;1.75;;;;;;;;;;5031553;28;20502;-56
2022/01/07 09:49:19;;;;;;;1.87;1.47;;;;;;;;;;5028541;28;20102;-55
2022/01/07 09:51:44;;;;;;;3.20;1.83;;;;;;;;;;5032842;28;20284;-59
2022/01/07 09:54:10;;;;;;;3.60;1.67;;;;;;;;;;5037523;28;20037;-57
2022/01/07 09:56:35;;;;;;;2.47;1.80;;;;;;;;;;5039356;28;20088;-60
2022/01/07 09:59:04;;;;;;;2.13;1.73;;;;;;;;;;5038756;28;20028;-55
2022/01/07 10:01:30;;;;;;;2.00;1.63;;;;;;;;;;5034574;28;20021;-58
2022/01/07 10:03:56;;;;;;;2.77;2.00;;;;;;;;;;5033650;28;20029;-59
2022/01/07 10:06:21;;;;;;;2.67;1.85;;;;;;;;;;5031247;28;20018;-57
2022/01/07 10:09:07;;;;;;;2.70;1.80;;;;;;;;;;5030412;28;20464;-58
2022/01/07 10:11:32;;;;;;;4.75;2.10;;;;;;;;;;5025795;28;20418;-58
2022/01/07 10:14:13;;;;;;;6.33;2.47;;;;;;;;;;5042531;28;20037;-57
2022/01/07 10:16:47;;;;;;;6.25;2.70;;;;;;;;;;5024721;28;20271;-56
2022/01/07 10:19:27;;;;;;;7.50;3.33;;;;;;;;;;5038091;28;20029;-62
2022/01/07 10:21:56;;;;;;;5.45;3.13;;;;;;;;;;5035645;28;20103;-57
2022/01/07 10:24:21;;;;;;;5.82;3.28;;;;;;;;;;5031839;28;20123;-52
2022/01/07 10:27:07;;;;;;;4.63;3.30;;;;;;;;;;5044066;28;20032;-55
2022/01/07 10:29:33;;;;;;;5.85;2.80;;;;;;;;;;5043854;28;20287;-57
2022/01/07 10:32:17;;;;;;;3.78;2.70;;;;;;;;;;5026728;28;20009;-54
2022/01/07 10:34:59;;;;;;;3.10;2.38;;;;;;;;;;5044045;28;20090;-56
2022/01/07 10:37:24;;;;;;;4.15;2.50;;;;;;;;;;5043653;28;20021;-55
2022/01/07 10:39:50;;;;;;;3.47;2.77;;;;;;;;;;5027808;28;20013;-59
2022/01/07 10:42:21;;;;;;;3.60;2.37;;;;;;;;;;5047680;28;20021;-55
2022/01/07 10:44:59;;;;;;;4.97;2.40;;;;;;;;;;5048026;28;20032;-56
2022/01/07 10:47:24;;;;;;;4.60;2.50;;;;;;;;;;5032415;28;20107;-56
2022/01/07 10:49:50;;;;;;;3.75;2.25;;;;;;;;;;5029804;28;20475;-52
2022/01/07 10:52:21;;;;;;;3.97;2.57;;;;;;;;;;5035027;28;20017;-54
2022/01/07 10:55:03;;;;;;;4.32;2.58;;;;;;;;;;5038569;28;20016;-55
2022/01/07 10:57:35;;;;;;;4.45;2.35;;;;;;;;;;5026569;28;20048;-57
2022/01/07 11:00:07;;;;;;;3.90;2.30;;;;;;;;;;5030936;28;20052;-59
2022/01/07 11:02:33;;;;;;;4.47;2.65;;;;;;;;;;5033470;28;20101;-52
2022/01/07 11:04:58;;;;;;;3.47;2.38;;;;;;;;;;5037024;28;20084;-53
2022/01/07 11:07:23;;;;;;;4.13;2.70;;;;;;;;;;5027095;28;20517;-54
2022/01/07 11:09:50;;;;;;;5.40;2.30;;;;;;;;;;5047810;28;20490;-57
2022/01/07 11:12:16;;;;;;;3.35;2.30;;;;;;;;;;5018671;28;20124;-58
2022/01/07 11:14:42;;;;;;;4.57;2.28;;;;;;;;;;5026402;28;20112;-56
2022/01/07 11:17:10;;;;;;;4.47;2.22;;;;;;;;;;5042032;28;20067;-57
2022/01/07 11:19:37;;;;;;;4.07;2.17;;;;;;;;;;5047575;28;20051;-55
2022/01/07 11:22:02;;;;;;;3.75;2.28;;;;;;;;;;5047711;28;20028;-55
2022/01/07 11:24:32;;;;;;;4.30;2.40;;;;;;;;;;5047230;28;20061;-56
2022/01/07 11:26:58;;;;;;;5.72;2.60;;;;;;;;;;5047536;28;20025;-56
2022/01/07 11:29:23;;;;;;;4.72;2.13;;;;;;;;;;5045071;28;20438;-54
2022/01/07 11:31:50;;;;;;;3.87;2.10;;;;;;;;;;5032240;28;20021;-56
2022/01/07 11:34:18;;;;;;;3.63;2.30;;;;;;;;;;5043311;28;20303;-56
2022/01/07 11:36:44;;;;;;;4.13;2.20;;;;;;;;;;5043522;28;20029;-53
2022/01/07 11:39:09;;;;;;;4.50;2.40;;;;;;;;;;5047256;28;20506;-56
2022/01/07 11:41:44;;;;;;;3.80;2.10;;;;;;;;;;5047203;28;20049;-57
2022/01/07 11:44:10;;;;;;;3.65;2.28;;;;;;;;;;5046806;28;20309;-55
2022/01/07 11:46:35;;;;;;;2.58;1.90;;;;;;;;;;5019730;28;20021;-56
2022/01/07 11:49:01;;;;;;;3.87;2.30;;;;;;;;;;5026753;28;20377;-56
2022/01/07 11:51:36;;;;;;;3.20;2.30;;;;;;;;;;5028641;28;20327;-58
2022/01/07 11:54:03;;;;;;;3.53;1.83;;;;;;;;;;5030500;28;20700;-56
2022/01/07 11:56:28;;;;;;;5.28;2.30;;;;;;;;;;5028132;28;20088;-56
2022/01/07 11:58:55;;;;;;;3.07;2.10;;;;;;;;;;5027964;28;20013;-53
2022/01/07 12:01:24;;;;;;;4.47;2.22;;;;;;;;;;5027685;28;20499;-55
2022/01/07 12:03:49;;;;;;;3.28;2.22;;;;;;;;;;5028962;28;20071;-56
2022/01/07 12:06:17;;;;;;;3.75;2.30;;;;;;;;;;5027663;28;20040;-56
2022/01/07 12:09:05;;;;;;;3.60;2.15;;;;;;;;;;5029511;28;20036;-56
2022/01/07 12:11:31;;;;;;;4.85;2.58;;;;;;;;;;5029406;28;20028;-53
2022/01/07 12:13:56;;;;;;;4.63;2.20;;;;;;;;;;5028421;28;20009;-57
2022/01/07 12:16:22;;;;;;;4.32;2.30;;;;;;;;;;5032684;28;20271;-58
2022/01/07 12:18:47;;;;;;;4.32;2.15;;;;;;;;;;5034828;28;20029;-57
2022/01/07 12:21:12;;;;;;;4.53;2.37;;;;;;;;;;5028917;28;20044;-59
2022/01/07 12:23:39;;;;;;;3.10;2.23;;;;;;;;;;5028637;28;20053;-58
2022/01/07 12:26:04;;;;;;;3.50;2.40;;;;;;;;;;5025071;28;20107;-62
2022/01/07 12:28:34;;;;;;;4.20;2.60;;;;;;;;;;5021342;28;20671;-57
2022/01/07 12:31:09;;;;;;;4.45;2.38;;;;;;;;;;5046435;28;20043;-60
2022/01/07 12:33:35;;;;;;;3.58;2.50;;;;;;;;;;5026225;28;20041;-58
2022/01/07 12:36:00;;;;;;;4.07;2.72;;;;;;;;;;5029080;28;20028;-58
2022/01/07 12:38:25;;;;;;;3.53;2.17;;;;;;;;;;5030312;28;20029;-57
2022/01/07 12:40:55;;;;;;;3.57;2.50;;;;;;;;;;5027332;28;20323;-57
2022/01/07 12:43:21;;;;;;;4.40;2.70;;;;;;;;;;5027793;28;20288;-57
2022/01/07 12:46:03;;;;;;;5.47;2.40;;;;;;;;;;5034260;28;20017;-56
2022/01/07 12:48:35;;;;;;;4.15;2.55;;;;;;;;;;5025909;28;20087;-57
2022/01/07 12:51:03;;;;;;;4.00;2.28;;;;;;;;;;5025919;28;20060;-59
2022/01/07 12:53:29;;;;;;;5.03;2.63;;;;;;;;;;5025842;28;20022;-56
2022/01/07 12:55:54;;;;;;;5.38;2.60;;;;;;;;;;5028868;28;20581;-56
2022/01/07 12:58:28;;;;;;;3.97;2.50;;;;;;;;;;5045875;28;20044;-60
2022/01/07 13:00:53;;;;;;;5.13;2.85;;;;;;;;;;5031469;28;20099;-59
2022/01/07 13:03:24;;;;;;;4.97;2.53;;;;;;;;;;5029565;28;20082;-58
2022/01/07 13:05:49;;;;;;;4.00;2.28;;;;;;;;;;5034944;28;20025;-60
2022/01/07 13:08:17;;;;;;;4.20;2.50;;;;;;;;;;5022205;28;20024;-59
2022/01/07 13:10:46;;;;;;;4.18;2.78;;;;;;;;;;5033273;28;20018;-57
2022/01/07 13:13:11;;;;;;;3.72;2.50;;;;;;;;;;5035981;28;20032;-58
2022/01/07 13:15:40;;;;;;;4.23;2.20;;;;;;;;;;5028163;28;20021;-57
2022/01/07 13:18:14;;;;;;;3.92;2.50;;;;;;;;;;5038391;28;20275;-55
2022/01/07 13:20:39;;;;;;;3.90;2.42;;;;;;;;;;5033186;28;20029;-57
2022/01/07 13:23:04;;;;;;;3.37;2.60;;;;;;;;;;5029084;28;20422;-57
2022/01/07 13:25:29;;;;;;;3.33;2.20;;;;;;;;;;5033696;28;20667;-57
2022/01/07 13:27:55;;;;;;;4.30;2.40;;;;;;;;;;5025525;28;20479;-58
2022/01/07 13:30:33;;;;;;;3.47;2.60;;;;;;;;;;5024715;28;20052;-57
2022/01/07 13:33:07;;;;;;;3.50;2.40;;;;;;;;;;5029839;28;20025;-58
2022/01/07 13:35:33;;;;;;;3.45;2.40;;;;;;;;;;5020496;28;20441;-56
2022/01/07 13:37:59;;;;;;;4.60;2.60;;;;;;;;;;5027237;28;20016;-54
2022/01/07 13:40:29;;;;;;;3.55;2.22;;;;;;;;;;5040667;28;20554;-57
2022/01/07 13:43:07;;;;;;;4.50;2.63;;;;;;;;;;5032301;28;20009;-57
2022/01/07 13:45:32;;;;;;;4.32;2.60;;;;;;;;;;5031076;28;20045;-59
2022/01/07 13:48:02;;;;;;;3.40;2.37;;;;;;;;;;5040327;28;20036;-58
2022/01/07 13:50:30;;;;;;;4.15;2.33;;;;;;;;;;5024228;28;20041;-57
2022/01/07 13:52:55;;;;;;;3.08;2.40;;;;;;;;;;5027039;28;20029;-57
2022/01/07 13:55:28;;;;;;;4.43;2.60;;;;;;;;;;5027125;28;20013;-56
2022/01/07 13:58:03;;;;;;;3.85;2.30;;;;;;;;;;5043366;28;20483;-56
2022/01/07 14:00:29;;;;;;;3.55;2.45;;;;;;;;;;5041209;28;20032;-55
2022/01/07 14:02:55;;;;;;;3.83;2.78;;;;;;;;;;5035133;28;20029;-57
2022/01/07 14:05:21;;;;;;;3.72;2.30;;;;;;;;;;5044610;28;20051;-58
2022/01/07 14:07:46;;;;;;;4.25;2.70;;;;;;;;;;5028415;28;20502;-57
2022/01/07 14:10:24;;;;;;;3.67;2.40;;;;;;;;;;5036654;28;20041;-56
2022/01/07 14:12:49;;;;;;;5.70;2.90;;;;;;;;;;5016505;28;20032;-56
2022/01/07 14:15:15;;;;;;;4.03;2.47;;;;;;;;;;5044167;28;20150;-56
2022/01/07 14:17:40;;;;;;;4.22;2.67;;;;;;;;;;5044136;28;20035;-54
2022/01/07 14:20:06;;;;;;;4.45;3.00;;;;;;;;;;5026159;28;20021;-53
2022/01/07 14:22:34;;;;;;;3.42;2.67;;;;;;;;;;5044704;28;20052;-57
2022/01/07 14:25:01;;;;;;;4.77;2.50;;;;;;;;;;5044576;28;20053;-57
2022/01/07 14:27:35;;;;;;;3.15;2.30;;;;;;;;;;5044827;28;20025;-55
2022/01/07 14:30:01;;;;;;;3.90;2.45;;;;;;;;;;5045473;28;20020;-60
2022/01/07 14:32:26;;;;;;;3.50;2.50;;;;;;;;;;5040169;28;20025;-56
2022/01/07 14:34:56;;;;;;;4.30;2.92;;;;;;;;;;5034587;28;20033;-55
2022/01/07 14:37:21;;;;;;;2.80;2.50;;;;;;;;;;5044427;28;20025;-57
2022/01/07 14:39:46;;;;;;;3.72;2.85;;;;;;;;;;5045783;28;20051;-57
2022/01/07 14:42:12;;;;;;;3.63;2.40;;;;;;;;;;5045292;28;20642;-58
2022/01/07 14:44:37;;;;;;;3.65;2.65;;;;;;;;;;5043975;28;20295;-57